createdAt,value
2022-07-30T00:01:35.736Z,1.17
2022-07-30T00:04:03.550Z,0.90
2022-07-30T00:06:30.500Z,0.90
2022-07-30T00:08:57.557Z,1.07
2022-07-30T00:11:27.679Z,0.90
2022-07-30T00:13:55.561Z,1.20
2022-07-30T00:16:22.755Z,1.40
2022-07-30T00:18:49.734Z,1.50
2022-07-30T00:21:20.162Z,1.13
2022-07-30T00:24:04.238Z,1.37
2022-07-30T00:26:31.330Z,1.00
2022-07-30T00:28:58.280Z,0.90
2022-07-30T00:31:25.156Z,1.37
2022-07-30T00:33:51.995Z,1.20
2022-07-30T00:36:19.096Z,1.10
2022-07-30T00:38:45.937Z,1.20
2022-07-30T00:41:13.234Z,0.93
2022-07-30T00:43:42.972Z,1.30
2022-07-30T00:46:09.938Z,1.10
2022-07-30T00:48:36.828Z,2.10
2022-07-30T00:51:04.112Z,1.10
2022-07-30T00:53:30.963Z,1.37
2022-07-30T00:55:58.137Z,1.10
2022-07-30T00:58:24.996Z,1.40
2022-07-30T01:00:51.965Z,1.43
2022-07-30T01:03:19.403Z,1.30
2022-07-30T01:05:46.753Z,1.03
2022-07-30T01:08:13.629Z,1.07
2022-07-30T01:10:40.564Z,1.20
2022-07-30T01:13:08.892Z,1.30
2022-07-30T01:15:36.148Z,1.20
2022-07-30T01:18:07.131Z,1.27
2022-07-30T01:20:41.154Z,1.30
2022-07-30T01:23:15.392Z,1.17
2022-07-30T01:26:07.721Z,1.53
2022-07-30T01:29:24.969Z,1.13
2022-07-30T01:31:56.238Z,1.23
2022-07-30T01:34:23.975Z,1.20
2022-07-30T01:36:51.109Z,1.07
2022-07-30T01:39:19.378Z,1.03
2022-07-30T01:41:49.301Z,1.07
2022-07-30T01:44:23.935Z,1.47
2022-07-30T01:46:51.769Z,1.10
2022-07-30T01:49:20.757Z,1.13
2022-07-30T01:51:48.734Z,1.10
2022-07-30T01:54:19.185Z,1.07
2022-07-30T01:56:47.841Z,1.00
2022-07-30T01:59:18.389Z,1.10
2022-07-30T02:01:45.397Z,1.43
2022-07-30T02:04:12.322Z,1.10
2022-07-30T02:07:01.884Z,1.10
2022-07-30T02:09:37.888Z,1.13
2022-07-30T02:12:26.576Z,1.30
2022-07-30T02:15:13.805Z,1.40
2022-07-30T02:18:06.113Z,1.20
2022-07-30T02:20:35.854Z,1.27
2022-07-30T02:23:15.196Z,1.00
2022-07-30T02:25:47.219Z,1.20
2022-07-30T02:28:15.765Z,1.03
2022-07-30T02:30:52.548Z,1.30
2022-07-30T02:33:26.475Z,1.20
2022-07-30T02:35:55.293Z,1.40
2022-07-30T02:38:25.430Z,1.40
2022-07-30T02:40:54.910Z,1.80
2022-07-30T02:43:25.229Z,1.13
2022-07-30T02:45:53.018Z,1.67
2022-07-30T02:48:34.363Z,1.33
2022-07-30T02:51:03.194Z,1.47
2022-07-30T02:53:31.018Z,0.90
2022-07-30T02:55:59.403Z,1.10
2022-07-30T02:58:27.527Z,1.20
2022-07-30T03:00:57.117Z,1.23
2022-07-30T03:03:29.158Z,1.13
2022-07-30T03:05:57.046Z,1.20
2022-07-30T03:08:26.324Z,1.50
2022-07-30T03:10:55.875Z,1.03
2022-07-30T03:13:24.432Z,1.70
2022-07-30T03:15:54.084Z,0.90
2022-07-30T03:18:22.225Z,1.53
2022-07-30T03:20:56.676Z,1.13
2022-07-30T03:23:25.483Z,1.10
2022-07-30T03:25:57.691Z,1.33
2022-07-30T03:28:25.691Z,1.20
2022-07-30T03:30:53.727Z,1.30
2022-07-30T03:33:22.273Z,1.43
2022-07-30T03:35:49.830Z,1.40
2022-07-30T03:38:18.109Z,1.50
2022-07-30T03:40:46.322Z,0.90
2022-07-30T03:43:32.815Z,1.20
2022-07-30T03:46:03.402Z,1.40
2022-07-30T03:48:31.379Z,1.43
2022-07-30T03:50:59.811Z,2.03
2022-07-30T03:53:27.731Z,1.33
2022-07-30T03:55:55.305Z,1.47
2022-07-30T03:58:22.538Z,1.27
2022-07-30T04:00:50.705Z,1.40
2022-07-30T04:03:30.776Z,1.20
2022-07-30T04:05:58.331Z,1.13
2022-07-30T04:08:25.798Z,1.10
2022-07-30T04:10:52.928Z,1.30
2022-07-30T04:13:19.966Z,1.00
2022-07-30T04:16:39.853Z,1.17
2022-07-30T04:18:56.267Z,0.97
2022-07-30T04:21:25.946Z,1.60
2022-07-30T04:24:03.772Z,1.20
2022-07-30T04:26:33.294Z,1.40
2022-07-30T04:29:01.750Z,1.43
2022-07-30T04:31:29.391Z,1.20
2022-07-30T04:33:58.893Z,1.10
2022-07-30T04:36:32.081Z,1.20
2022-07-30T04:39:00.121Z,1.30
2022-07-30T04:41:27.194Z,1.00
2022-07-30T04:43:54.107Z,1.27
2022-07-30T04:46:24.511Z,1.20
2022-07-30T04:48:52.116Z,1.40
2022-07-30T04:51:34.570Z,1.20
2022-07-30T04:54:03.000Z,1.50
2022-07-30T04:56:33.013Z,1.03
2022-07-30T04:59:00.290Z,1.10
2022-07-30T05:01:40.781Z,1.70
2022-07-30T05:04:09.735Z,1.47
2022-07-30T05:06:38.003Z,1.17
2022-07-30T05:09:04.999Z,2.33
2022-07-30T05:11:32.354Z,1.13
2022-07-30T05:13:59.482Z,1.07
2022-07-30T05:16:26.769Z,1.20
2022-07-30T05:18:53.621Z,1.30
2022-07-30T05:21:20.445Z,1.30
2022-07-30T05:23:50.057Z,1.30
2022-07-30T05:26:21.702Z,1.33
2022-07-30T05:28:53.531Z,1.37
2022-07-30T05:31:22.002Z,1.30
2022-07-30T05:33:48.989Z,1.13
2022-07-30T05:36:16.037Z,1.33
2022-07-30T05:38:43.039Z,1.60
2022-07-30T05:41:31.640Z,1.60
2022-07-30T05:43:57.134Z,1.17
2022-07-30T05:46:24.284Z,1.50
2022-07-30T05:48:51.278Z,1.30
2022-07-30T05:51:19.849Z,1.00
2022-07-30T05:53:47.155Z,1.30
2022-07-30T05:56:14.017Z,1.30
2022-07-30T05:58:40.959Z,1.60
2022-07-30T06:01:08.535Z,1.10
2022-07-30T06:03:35.561Z,1.90
2022-07-30T06:06:07.142Z,1.07
2022-07-30T06:08:34.451Z,1.10
2022-07-30T06:11:01.437Z,1.00
2022-07-30T06:13:28.372Z,1.60
2022-07-30T06:15:55.283Z,1.10
2022-07-30T06:18:23.302Z,1.23
2022-07-30T06:20:52.102Z,1.07
2022-07-30T06:23:19.745Z,0.90
2022-07-30T06:25:48.252Z,2.03
2022-07-30T06:28:36.472Z,1.20
2022-07-30T06:31:03.032Z,1.43
2022-07-30T06:33:30.184Z,1.10
2022-07-30T06:35:57.011Z,1.10
2022-07-30T06:38:23.929Z,1.20
2022-07-30T06:40:50.899Z,1.27
2022-07-30T06:43:19.196Z,1.37
2022-07-30T06:45:46.075Z,1.33
2022-07-30T06:48:13.037Z,1.20
2022-07-30T06:50:41.465Z,1.40
2022-07-30T06:53:08.291Z,1.30
2022-07-30T06:55:35.144Z,1.50
2022-07-30T06:58:02.109Z,1.50
2022-07-30T07:00:29.119Z,1.30
2022-07-30T07:02:55.936Z,1.37
2022-07-30T07:05:23.738Z,1.57
2022-07-30T07:07:58.798Z,1.37
2022-07-30T07:10:26.906Z,1.60
2022-07-30T07:12:54.045Z,1.60
2022-07-30T07:15:22.303Z,1.40
2022-07-30T07:17:59.362Z,1.20
2022-07-30T07:20:29.152Z,1.87
2022-07-30T07:22:55.922Z,1.40
2022-07-30T07:25:24.795Z,1.53
2022-07-30T07:28:12.817Z,1.50
2022-07-30T07:30:38.537Z,1.53
2022-07-30T07:33:05.497Z,1.47
2022-07-30T07:35:48.679Z,1.93
2022-07-30T07:38:16.366Z,2.10
2022-07-30T07:40:43.314Z,1.70
2022-07-30T07:43:10.145Z,1.87
2022-07-30T07:45:36.947Z,1.60
2022-07-30T07:48:04.030Z,1.77
2022-07-30T07:50:30.896Z,1.73
2022-07-30T07:52:57.707Z,1.73
2022-07-30T07:55:24.815Z,1.50
2022-07-30T07:57:52.951Z,1.90
2022-07-30T08:00:21.203Z,2.43
2022-07-30T08:02:48.610Z,1.80
2022-07-30T08:05:16.133Z,2.10
2022-07-30T08:07:44.239Z,2.77
2022-07-30T08:10:13.959Z,1.83
2022-07-30T08:12:40.806Z,2.23
2022-07-30T08:15:09.472Z,1.77
2022-07-30T08:17:43.649Z,1.50
2022-07-30T08:20:11.609Z,2.13
2022-07-30T08:22:38.661Z,1.77
2022-07-30T08:25:06.406Z,1.93
2022-07-30T08:27:33.279Z,2.10
2022-07-30T08:30:05.365Z,2.00
2022-07-30T08:32:32.323Z,2.17
2022-07-30T08:34:59.250Z,1.70
2022-07-30T08:37:26.822Z,1.80
2022-07-30T08:39:53.724Z,1.77
2022-07-30T08:42:21.084Z,2.13
2022-07-30T08:44:48.432Z,2.13
2022-07-30T08:47:18.567Z,2.10
2022-07-30T08:49:47.637Z,1.80
2022-07-30T08:52:15.260Z,1.97
2022-07-30T08:54:42.311Z,1.90
2022-07-30T08:57:09.774Z,1.97
2022-07-30T09:00:00.801Z,2.23
2022-07-30T09:02:27.819Z,1.77
2022-07-30T09:04:56.420Z,2.10
2022-07-30T09:07:23.562Z,1.97
2022-07-30T09:09:50.713Z,2.20
2022-07-30T09:12:35.701Z,1.87
2022-07-30T09:15:06.565Z,1.77
2022-07-30T09:17:56.608Z,2.20
2022-07-30T09:20:43.788Z,2.17
2022-07-30T09:23:10.650Z,2.27
2022-07-30T09:25:43.517Z,1.83
2022-07-30T09:28:16.314Z,2.00
2022-07-30T09:30:49.632Z,2.13
2022-07-30T09:33:35.674Z,1.90
2022-07-30T09:36:04.335Z,1.50
2022-07-30T09:38:54.140Z,1.73
2022-07-30T09:41:40.253Z,2.13
2022-07-30T09:44:07.389Z,1.90
2022-07-30T09:46:47.734Z,1.70
2022-07-30T09:49:16.961Z,1.50
2022-07-30T09:51:56.462Z,1.80
2022-07-30T09:54:52.403Z,1.50
2022-07-30T09:57:25.690Z,1.40
2022-07-30T09:59:55.891Z,2.27
2022-07-30T10:02:33.340Z,1.90
2022-07-30T10:05:15.280Z,1.30
2022-07-30T10:08:16.586Z,1.87
2022-07-30T10:10:46.953Z,2.17
2022-07-30T10:13:16.899Z,2.17
2022-07-30T10:15:46.625Z,1.90
2022-07-30T10:18:15.777Z,1.90
2022-07-30T10:20:45.056Z,1.90
2022-07-30T10:23:15.888Z,1.80
2022-07-30T10:25:49.532Z,2.13
2022-07-30T10:28:22.709Z,2.20
2022-07-30T10:30:52.229Z,2.07
2022-07-30T10:33:34.508Z,2.07
2022-07-30T10:36:03.824Z,2.00
2022-07-30T10:38:34.434Z,2.13
2022-07-30T10:41:09.226Z,2.23
2022-07-30T10:43:36.435Z,2.10
2022-07-30T10:46:19.928Z,1.80
2022-07-30T10:48:50.679Z,2.50
2022-07-30T10:51:25.361Z,2.30
2022-07-30T10:54:01.472Z,2.57
2022-07-30T10:56:28.423Z,2.40
2022-07-30T10:59:10.171Z,2.30
2022-07-30T11:02:02.545Z,2.90
2022-07-30T11:04:30.233Z,1.97
2022-07-30T11:07:30.106Z,1.83
2022-07-30T11:10:05.553Z,2.00
2022-07-30T11:12:44.025Z,2.23
2022-07-30T11:15:18.520Z,2.80
2022-07-30T11:17:58.425Z,2.23
2022-07-30T11:20:26.809Z,2.53
2022-07-30T11:22:54.058Z,2.37
2022-07-30T11:27:53.968Z,3.00
2022-07-30T11:30:20.795Z,2.90
2022-07-30T11:32:57.352Z,3.17
2022-07-30T11:35:35.574Z,3.47
2022-07-30T11:38:07.309Z,3.73
2022-07-30T11:40:42.291Z,4.17
2022-07-30T11:43:34.988Z,3.80
2022-07-30T11:46:28.516Z,3.63
2022-07-30T11:49:02.801Z,4.00
2022-07-30T11:51:41.156Z,2.60
2022-07-30T11:54:10.771Z,3.50
2022-07-30T11:56:47.484Z,3.13
2022-07-30T11:59:14.373Z,3.27
2022-07-30T12:01:41.820Z,3.03
2022-07-30T12:04:09.457Z,2.63
2022-07-30T12:06:54.468Z,3.80
2022-07-30T12:09:28.987Z,3.23
2022-07-30T12:11:57.311Z,3.00
2022-07-30T12:14:24.487Z,2.87
2022-07-30T12:16:54.105Z,3.07
2022-07-30T12:19:21.304Z,2.67
2022-07-30T12:21:52.476Z,2.90
2022-07-30T12:24:25.545Z,2.57
2022-07-30T12:26:53.093Z,2.67
2022-07-30T12:29:20.297Z,2.60
2022-07-30T12:31:47.721Z,2.50
2022-07-30T12:34:25.198Z,3.60
2022-07-30T12:36:52.487Z,2.60
2022-07-30T12:39:25.690Z,2.70
2022-07-30T12:41:56.208Z,2.60
2022-07-30T12:44:39.733Z,2.97
2022-07-30T12:47:20.228Z,2.60
2022-07-30T12:49:49.624Z,2.50
2022-07-30T12:52:28.166Z,2.87
2022-07-30T12:55:12.306Z,3.47
2022-07-30T12:58:09.013Z,2.60
2022-07-30T13:00:45.111Z,3.33
2022-07-30T13:03:27.659Z,2.47
2022-07-30T13:05:56.814Z,2.60
2022-07-30T13:08:45.832Z,2.40
2022-07-30T13:11:13.275Z,2.67
2022-07-30T13:13:40.290Z,2.53
2022-07-30T13:16:07.684Z,2.50
2022-07-30T13:18:35.783Z,2.50
2022-07-30T13:21:04.436Z,3.23
2022-07-30T13:23:31.474Z,2.67
2022-07-30T13:25:58.504Z,2.47
2022-07-30T13:28:26.109Z,3.07
2022-07-30T13:30:53.079Z,2.80
2022-07-30T13:33:20.094Z,2.97
2022-07-30T13:35:47.045Z,2.50
2022-07-30T13:38:14.042Z,2.70
2022-07-30T13:40:41.434Z,2.80
2022-07-30T13:43:08.700Z,4.60
2022-07-30T13:45:36.459Z,2.70
2022-07-30T13:48:04.291Z,2.97
2022-07-30T13:50:31.396Z,2.60
2022-07-30T13:53:01.959Z,2.63
2022-07-30T13:55:29.893Z,2.67
2022-07-30T13:57:57.620Z,2.37
2022-07-30T14:00:24.828Z,3.13
2022-07-30T14:02:51.900Z,2.73
2022-07-30T14:05:18.860Z,3.20
2022-07-30T14:07:45.754Z,3.33
2022-07-30T14:10:12.865Z,3.50
2022-07-30T14:12:40.129Z,2.80
2022-07-30T14:15:09.384Z,3.20
2022-07-30T14:17:36.419Z,3.40
2022-07-30T14:20:04.198Z,3.00
2022-07-30T14:22:31.031Z,2.33
2022-07-30T14:24:57.852Z,2.40
2022-07-30T14:27:24.802Z,3.40
2022-07-30T14:29:51.775Z,3.57
2022-07-30T14:32:18.667Z,2.57
2022-07-30T14:34:49.216Z,2.90
2022-07-30T14:37:16.620Z,2.60
2022-07-30T14:39:43.561Z,3.00
2022-07-30T14:42:10.994Z,2.70
2022-07-30T14:44:38.335Z,2.70
2022-07-30T14:47:05.517Z,2.70
2022-07-30T14:49:32.735Z,2.67
2022-07-30T14:52:00.899Z,2.40
2022-07-30T14:54:28.115Z,2.70
2022-07-30T14:56:58.242Z,2.40
2022-07-30T14:59:27.539Z,2.30
2022-07-30T15:01:55.538Z,2.80
2022-07-30T15:04:23.005Z,2.40
2022-07-30T15:06:49.991Z,2.57
2022-07-30T15:09:16.822Z,2.17
2022-07-30T15:12:09.396Z,2.20
2022-07-30T15:14:30.787Z,2.30
2022-07-30T15:17:03.442Z,1.83
2022-07-30T15:19:31.504Z,2.37
2022-07-30T15:21:59.241Z,2.27
2022-07-30T15:24:27.003Z,2.20
2022-07-30T15:26:55.857Z,2.00
2022-07-30T15:29:24.249Z,2.00
2022-07-30T15:31:51.892Z,2.70
2022-07-30T15:34:18.792Z,1.90
2022-07-30T15:36:45.788Z,1.90
2022-07-30T15:39:13.513Z,1.73
2022-07-30T15:41:42.935Z,2.20
2022-07-30T15:44:09.809Z,2.10
2022-07-30T15:46:36.781Z,2.03
2022-07-30T15:49:03.877Z,3.40
2022-07-30T15:51:32.691Z,2.27
2022-07-30T15:53:59.862Z,2.27
2022-07-30T15:56:28.313Z,2.10
2022-07-30T15:58:55.600Z,1.90
2022-07-30T16:01:22.997Z,2.07
2022-07-30T16:03:49.911Z,2.07
2022-07-30T16:06:16.753Z,2.43
2022-07-30T16:08:46.225Z,2.13
2022-07-30T16:11:13.090Z,2.37
2022-07-30T16:13:39.966Z,2.30
2022-07-30T16:16:07.105Z,2.33
2022-07-30T16:18:33.962Z,2.43
2022-07-30T16:21:01.360Z,2.00
2022-07-30T16:23:36.754Z,2.23
2022-07-30T16:26:04.013Z,1.80
2022-07-30T16:28:31.025Z,1.90
2022-07-30T16:30:58.427Z,1.90
2022-07-30T16:36:16.940Z,2.30
2022-07-30T16:38:43.820Z,1.93
2022-07-30T16:41:13.405Z,1.90
2022-07-30T16:43:40.896Z,2.17
2022-07-30T16:46:07.916Z,2.40
2022-07-30T16:48:34.849Z,2.13
2022-07-30T16:51:02.221Z,1.93
2022-07-30T16:53:29.875Z,2.20
2022-07-30T16:56:23.342Z,1.97
2022-07-30T16:58:50.351Z,1.53
2022-07-30T17:01:17.327Z,1.70
2022-07-30T17:03:44.366Z,2.00
2022-07-30T17:06:11.298Z,1.90
2022-07-30T17:08:38.154Z,2.07
2022-07-30T17:11:09.421Z,1.33
2022-07-30T17:13:38.124Z,1.83
2022-07-30T17:16:08.301Z,2.00
2022-07-30T17:18:35.253Z,2.00
2022-07-30T17:21:02.403Z,2.77
2022-07-30T17:23:29.353Z,2.20
2022-07-30T17:25:56.186Z,1.80
2022-07-30T17:28:26.970Z,2.20
2022-07-30T17:30:54.407Z,2.07
2022-07-30T17:33:21.339Z,2.23
2022-07-30T17:35:48.281Z,1.80
2022-07-30T17:38:15.261Z,2.03
2022-07-30T17:40:42.080Z,2.00
2022-07-30T17:43:11.554Z,1.93
2022-07-30T17:45:40.659Z,2.37
2022-07-30T17:48:08.435Z,2.33
2022-07-30T17:50:35.595Z,2.03
2022-07-30T17:53:04.014Z,2.27
2022-07-30T17:55:31.757Z,1.90
2022-07-30T17:57:58.593Z,2.50
2022-07-30T18:00:25.547Z,1.97
2022-07-30T18:02:52.572Z,3.40
2022-07-30T18:05:19.548Z,2.03
2022-07-30T18:07:46.368Z,1.70
2022-07-30T18:10:13.234Z,2.47
2022-07-30T18:12:48.532Z,2.33
2022-07-30T18:15:16.994Z,2.17
2022-07-30T18:17:43.860Z,2.57
2022-07-30T18:20:11.293Z,2.30
2022-07-30T18:22:38.323Z,2.77
2022-07-30T18:25:08.199Z,2.20
2022-07-30T18:27:45.678Z,2.10
2022-07-30T18:30:12.837Z,2.27
2022-07-30T18:32:39.705Z,2.00
2022-07-30T18:35:09.763Z,2.37
2022-07-30T18:37:41.903Z,2.73
2022-07-30T18:40:10.515Z,2.33
2022-07-30T18:42:37.509Z,2.43
2022-07-30T18:45:05.133Z,2.60
2022-07-30T18:47:32.034Z,2.00
2022-07-30T18:49:58.978Z,2.37
2022-07-30T18:52:26.656Z,2.77
2022-07-30T18:54:53.518Z,2.87
2022-07-30T18:57:20.630Z,2.47
2022-07-30T18:59:47.437Z,2.40
2022-07-30T19:02:14.447Z,3.27
2022-07-30T19:04:41.301Z,2.30
2022-07-30T19:07:08.284Z,2.50
2022-07-30T19:09:35.385Z,2.67
2022-07-30T19:12:02.821Z,2.50
2022-07-30T19:14:29.787Z,2.47
2022-07-30T19:16:59.428Z,2.17
2022-07-30T19:19:27.281Z,2.60
2022-07-30T19:21:54.345Z,2.50
2022-07-30T19:24:21.258Z,2.97
2022-07-30T19:26:49.091Z,2.83
2022-07-30T19:29:15.998Z,2.70
2022-07-30T19:31:42.957Z,2.30
2022-07-30T19:34:13.615Z,2.40
2022-07-30T19:36:40.573Z,2.83
2022-07-30T19:39:08.765Z,2.77
2022-07-30T19:41:40.815Z,2.33
2022-07-30T19:44:12.155Z,2.40
2022-07-30T19:46:39.351Z,3.13
2022-07-30T19:49:09.518Z,2.90
2022-07-30T19:52:10.708Z,3.07
2022-07-30T19:54:24.814Z,2.93
2022-07-30T19:56:52.421Z,2.70
2022-07-30T19:59:19.411Z,3.10
2022-07-30T20:02:06.767Z,2.70
2022-07-30T20:04:35.374Z,2.57
2022-07-30T20:07:02.331Z,2.43
2022-07-30T20:09:31.266Z,2.30
2022-07-30T20:11:59.930Z,2.60
2022-07-30T20:14:30.235Z,2.73
2022-07-30T20:17:01.957Z,2.67
2022-07-30T20:19:36.030Z,2.60
2022-07-30T20:22:03.295Z,2.60
2022-07-30T20:24:30.318Z,2.27
2022-07-30T20:26:58.070Z,2.83
2022-07-30T20:29:25.062Z,2.93
2022-07-30T20:31:51.927Z,3.07
2022-07-30T20:34:25.799Z,2.47
2022-07-30T20:36:53.845Z,2.70
2022-07-30T20:39:23.993Z,2.30
2022-07-30T20:42:07.595Z,2.90
2022-07-30T20:44:49.569Z,2.27
2022-07-30T20:47:34.232Z,3.07
2022-07-30T20:50:01.964Z,3.03
2022-07-30T20:52:28.844Z,3.10
2022-07-30T20:54:56.467Z,3.30
2022-07-30T20:57:55.954Z,3.50
2022-07-30T21:00:11.322Z,2.67
2022-07-30T21:02:39.323Z,2.50
2022-07-30T21:05:06.781Z,3.00
2022-07-30T21:07:36.783Z,2.90
2022-07-30T21:10:04.805Z,2.50
2022-07-30T21:12:34.355Z,2.37
2022-07-30T21:15:01.195Z,3.10
2022-07-30T21:17:28.767Z,2.33
2022-07-30T21:19:57.155Z,2.70
2022-07-30T21:22:24.332Z,2.83
2022-07-30T21:24:51.232Z,2.63
2022-07-30T21:27:19.090Z,2.70
2022-07-30T21:29:46.045Z,2.63
2022-07-30T21:32:13.221Z,2.77
2022-07-30T21:34:42.449Z,2.87
2022-07-30T21:37:09.815Z,2.77
2022-07-30T21:39:39.921Z,3.17
2022-07-30T21:42:08.221Z,3.13
2022-07-30T21:44:35.990Z,3.03
2022-07-30T21:47:05.331Z,3.30
2022-07-30T21:49:37.355Z,3.27
2022-07-30T21:52:04.863Z,3.03
2022-07-30T21:54:37.523Z,2.93
2022-07-30T21:57:14.970Z,3.50
2022-07-30T21:59:51.433Z,3.13
2022-07-30T22:02:18.881Z,2.73
2022-07-30T22:04:47.564Z,3.17
2022-07-30T22:07:18.022Z,2.63
2022-07-30T22:09:45.469Z,2.77
2022-07-30T22:12:17.953Z,4.13
2022-07-30T22:14:45.421Z,3.00
2022-07-30T22:17:23.373Z,3.00
2022-07-30T22:20:08.716Z,2.87
2022-07-30T22:22:38.148Z,3.43
2022-07-30T22:25:06.964Z,3.10
2022-07-30T22:27:39.934Z,2.47
2022-07-30T22:30:23.895Z,2.77
2022-07-30T22:32:55.395Z,2.90
2022-07-30T22:35:32.352Z,2.40
2022-07-30T22:38:01.766Z,2.80
2022-07-30T22:40:28.615Z,3.10
2022-07-30T22:42:55.562Z,3.40
2022-07-30T22:45:47.233Z,2.70
2022-07-30T22:50:56.934Z,3.00
2022-07-30T22:54:03.050Z,3.57
2022-07-30T22:56:15.732Z,3.03
2022-07-30T22:58:43.231Z,3.27
2022-07-30T23:01:10.920Z,2.93
2022-07-30T23:03:38.079Z,2.60
2022-07-30T23:06:05.122Z,3.90
2022-07-30T23:08:33.422Z,3.30
2022-07-30T23:11:00.419Z,3.47
2022-07-30T23:12:30.540Z,2.93
2022-07-30T23:13:28.651Z,3.20
2022-07-30T23:15:55.769Z,3.27
2022-07-30T23:18:22.696Z,3.37
2022-07-30T23:20:49.597Z,2.80
2022-07-30T23:23:16.437Z,3.10
2022-07-30T23:25:43.323Z,3.30
2022-07-30T23:28:10.224Z,2.83
2022-07-30T23:30:37.064Z,2.83
2022-07-30T23:33:04.092Z,3.37
2022-07-30T23:35:31.076Z,3.30
2022-07-30T23:37:57.925Z,2.53
2022-07-30T23:40:24.921Z,3.13
2022-07-30T23:42:52.617Z,3.30
2022-07-30T23:45:19.736Z,3.10
2022-07-30T23:48:00.616Z,3.23
2022-07-30T23:50:29.940Z,2.80
2022-07-30T23:52:56.891Z,3.50
2022-07-30T23:55:23.989Z,3.00
2022-07-30T23:57:50.828Z,3.17
